Date,TemperatureHighF,TemperatureAvgF,TemperatureLowF,DewpointHighF,DewpointAvgF,DewpointLowF,HumidityHigh,HumidityAvg,HumidityLow,PressureMaxIn,PressureMinIn,WindSpeedMaxMPH,WindSpeedAvgMPH,GustSpeedMaxMPH,PrecipitationSumIn
2013-1-1,39.4,36.0,27.0,32.5,28.8,18.0,82,75,67,29.88,29.69,0,0,0,0.00
2013-1-2,32.4,26.8,21.2,20.7,17.6,13.6,74,68,61,30.05,29.85,0,0,0,0.00
2013-1-3,31.7,26.8,20.9,20.9,18.2,14.4,78,70,61,30.05,29.93,0,0,0,0.00
2013-1-4,36.9,32.7,25.7,25.8,23.3,18.5,76,68,61,29.95,29.82,0,0,0,0.00
2013-1-5,40.1,33.1,28.4,27.2,22.8,20.0,75,66,58,30.16,29.89,0,0,0,0.00
2013-1-6,45.9,37.3,31.0,33.9,28.9,23.5,86,72,59,30.08,29.82,0,0,0,0.00
2013-1-7,43.7,36.7,28.6,32.5,27.0,21.6,77,68,55,30.25,29.92,0,0,0,0.00
2013-1-8,46.4,34.7,25.0,35.8,27.6,20.2,84,76,63,30.26,30.18,0,0,0,0.00
2013-1-9,47.2,36.6,25.6,40.0,31.4,22.2,89,82,73,30.24,29.99,0,0,0,0.00
2013-1-10,47.0,40.8,35.1,34.6,29.1,25.2,76,63,52,30.39,30.11,0,0,0,0.00
2013-1-11,45.9,39.4,32.4,41.8,32.5,24.2,92,77,68,30.38,29.93,0,0,0,0.00
2013-1-12,47.7,44.2,40.9,45.9,42.3,39.0,94,93,91,30.02,29.92,0,0,0,0.00
2013-1-13,48.1,45.4,42.7,46.7,44.1,41.0,96,95,94,30.00,29.85,0,0,0,0.00
2013-1-14,54.4,48.4,38.0,52.8,45.3,35.0,96,89,72,30.15,29.76,0,0,0,0.00
2013-1-15,38.3,36.3,33.8,35.4,33.1,31.1,93,88,84,30.20,30.05,0,0,0,0.00
2013-1-16,34.9,33.4,32.4,33.6,31.7,30.3,95,94,90,30.06,29.66,0,0,0,0.00
2013-1-17,42.1,37.3,34.4,36.3,33.3,29.1,95,86,75,29.95,29.76,0,0,0,0.00
2013-1-18,34.4,27.8,21.8,29.1,18.7,13.3,83,69,55,30.32,29.84,0,0,0,0.00
2013-1-19,50.0,37.1,23.8,35.9,27.7,16.7,80,69,53,30.26,29.77,0,0,0,0.00
2013-1-20,53.3,41.0,29.3,36.1,26.8,15.0,78,59,33,29.90,29.57,0,0,0,0.00
2013-1-21,32.8,27.7,20.7,18.9,15.7,10.9,69,61,53,29.94,29.71,0,0,0,0.00
2013-1-22,25.2,18.3,12.4,12.9,2.8,-2.2,59,51,40,30.08,29.71,0,0,0,0.00
2013-1-23,20.5,13.4,9.4,4.4,0.8,-2.8,69,57,46,30.10,30.01,0,0,0,0.00
2013-1-24,22.5,13.4,7.4,8.1,3.4,0.7,77,65,42,30.29,29.95,0,0,0,0.00
2013-1-25,24.1,17.0,11.5,12.3,5.4,-1.0,79,60,51,30.28,29.91,0,0,0,0.00
2013-1-26,26.5,19.0,11.7,13.9,9.8,5.7,81,68,52,30.24,29.90,0,0,0,0.00
2013-1-27,33.1,22.6,11.9,18.7,12.0,4.1,74,64,54,30.39,30.24,0,0,0,0.00
2013-1-28,34.0,29.4,21.6,31.6,24.2,13.0,91,81,67,30.34,29.86,0,0,0,0.00
2013-1-29,52.2,42.1,32.4,47.2,38.8,29.9,93,88,80,30.00,29.86,0,0,0,0.00
2013-1-30,65.2,51.3,41.2,59.9,48.7,38.8,95,91,82,29.91,29.19,0,0,0,0.00
2013-1-31,60.5,43.1,27.7,59.0,35.2,16.4,95,74,54,29.67,28.91,0,0,0,0.00
2013-2-1,30.6,27.1,21.8,19.4,14.5,9.4,70,59,46,30.11,29.66,0,0,0,0.00
2013-2-2,29.0,22.7,16.2,19.0,11.9,7.4,81,63,48,30.15,29.89,0,0,0,0.00
2013-2-3,31.3,25.3,20.9,24.3,20.2,16.7,86,81,73,29.89,29.65,0,0,0,0.00
2013-2-4,29.5,25.1,20.3,22.0,14.8,11.6,80,65,53,29.85,29.68,0,0,0,0.00
2013-2-5,32.8,29.1,24.8,27.9,24.3,17.6,88,82,74,29.81,29.73,0,0,0,0.00
2013-2-6,38.9,31.1,23.6,28.9,24.2,17.1,91,76,59,30.20,29.77,0,0,0,0.00
2013-2-7,35.5,28.1,21.4,23.0,18.1,12.6,72,66,59,30.34,30.15,0,0,0,0.00
2013-2-8,34.4,32.6,30.2,31.5,28.7,21.6,94,86,70,30.15,29.52,0,0,0,0.00
2013-2-9,31.7,26.5,20.0,29.9,19.0,7.3,93,75,49,30.22,29.62,0,0,0,0.00
2013-2-10,37.1,24.9,11.9,20.5,12.9,4.9,77,61,43,30.32,30.16,0,0,0,0.00
2013-2-11,42.5,35.5,29.3,40.0,31.8,20.2,94,87,66,30.16,29.51,0,0,0,0.00
2013-2-12,44.5,39.2,32.0,36.9,27.3,23.0,94,63,50,29.84,29.60,0,0,0,0.00
2013-2-13,43.9,34.6,24.7,31.0,26.0,19.5,91,72,51,29.82,29.52,0,0,0,0.00
2013-2-14,44.3,35.8,30.1,33.8,29.2,25.2,93,78,54,29.85,29.57,0,0,0,0.00
2013-2-15,54.5,40.6,28.4,37.4,30.8,25.0,91,70,46,29.86,29.76,0,0,0,0.00
2013-2-16,38.7,35.0,29.5,33.0,25.5,12.9,90,69,49,29.84,29.60,0,0,0,0.00
2013-2-17,31.3,26.3,18.5,12.9,6.8,0.6,50,43,36,29.90,29.56,0,0,0,0.00
2013-2-18,34.9,24.8,16.2,14.2,7.8,1.1,56,48,38,30.12,29.90,0,0,0,0.00
2013-2-19,46.4,34.7,23.0,41.0,27.1,12.3,93,74,53,30.04,29.55,0,0,0,0.00
2013-2-20,35.6,29.4,24.1,26.7,14.7,10.9,71,54,44,29.87,29.61,0,0,0,0.00
2013-2-21,34.7,27.9,22.1,16.8,14.4,11.0,69,57,46,30.14,29.85,0,0,0,0.00
2013-2-22,39.4,30.3,20.0,28.3,21.2,13.0,80,69,56,30.24,30.10,0,0,0,0.00
2013-2-23,43.6,38.2,32.8,41.8,36.3,27.6,96,93,78,30.11,29.66,0,0,0,0.00
2013-2-24,46.4,37.8,30.6,39.8,31.3,21.6,96,79,59,29.86,29.61,0,0,0,0.00
2013-2-25,44.6,35.7,27.0,30.4,25.7,21.2,81,68,53,30.09,29.86,0,0,0,0.00
2013-2-26,46.3,35.8,25.6,35.8,29.7,21.7,94,79,63,30.11,29.68,0,0,0,0.00
2013-2-27,49.7,42.5,36.2,46.6,39.3,34.6,96,89,74,29.70,29.36,0,0,0,0.00
2013-2-28,49.3,41.2,33.3,38.2,33.5,28.3,87,75,53,29.50,29.41,0,0,0,0.00
2013-3-1,45.5,37.9,30.2,30.7,28.6,25.9,91,70,52,29.66,29.48,0,0,0,0.00
2013-3-2,41.0,34.6,29.2,26.3,23.5,20.3,71,64,53,29.66,29.57,0,0,0,0.00
2013-3-3,37.1,31.9,27.7,21.4,19.6,17.1,69,61,52,29.65,29.55,0,0,0,0.00
2013-3-4,41.2,33.6,27.5,22.4,19.9,16.7,66,57,45,29.80,29.64,0,0,0,0.00
2013-3-5,46.8,37.2,30.4,29.6,24.8,21.2,76,61,48,29.88,29.79,0,0,0,0.00
2013-3-6,42.3,38.3,32.8,35.7,31.6,25.4,89,77,64,29.81,29.64,0,0,0,0.00
2013-3-7,44.5,38.3,32.8,34.0,29.0,25.5,91,70,55,29.95,29.78,0,0,0,0.00
2013-3-8,43.9,35.4,29.9,34.8,30.0,25.4,93,82,62,30.07,29.88,0,0,0,0.00
2013-3-9,57.4,43.0,31.1,27.4,21.1,10.3,69,46,18,30.16,30.04,0,0,0,0.00
2013-3-10,55.8,40.8,28.4,38.0,29.9,17.3,85,66,47,30.23,30.11,0,0,0,0.00
2013-3-11,60.8,46.5,34.2,47.1,39.9,29.3,90,79,55,30.17,29.91,0,0,0,0.00
2013-3-12,58.3,52.4,44.1,56.0,48.7,37.8,94,87,76,29.91,29.52,0,0,0,0.00
2013-3-13,49.7,41.4,34.2,37.8,30.1,24.9,81,65,42,29.76,29.67,0,0,0,0.00
2013-3-14,42.1,36.1,31.3,25.0,14.6,10.3,69,42,31,29.83,29.72,0,0,0,0.00
2013-3-15,48.2,38.1,26.1,31.8,21.5,11.5,62,51,44,29.85,29.57,0,0,0,0.00
2013-3-16,44.3,36.1,32.8,31.5,27.9,22.7,90,73,58,29.77,29.61,0,0,0,0.00
2013-3-17,39.6,32.9,26.5,30.5,21.7,17.0,91,65,44,30.14,29.77,0,0,0,0.00
2013-3-18,38.3,31.2,24.8,32.5,22.2,11.8,95,70,50,30.22,29.79,0,0,0,0.00
2013-3-19,49.0,39.0,33.8,40.0,32.5,18.1,96,80,41,29.80,29.54,0,0,0,0.00
2013-3-20,47.3,37.6,29.3,22.7,19.8,17.9,67,50,33,29.75,29.63,0,0,0,0.00
2013-3-21,40.0,33.6,27.0,28.7,19.7,13.2,89,58,37,29.69,29.49,0,0,0,0.00
2013-3-22,42.1,33.1,24.7,22.8,19.4,13.2,75,58,41,29.75,29.60,0,0,0,0.00
2013-3-23,47.2,37.6,28.1,24.7,20.9,18.3,67,52,36,29.80,29.69,0,0,0,0.00
2013-3-24,49.3,38.6,27.5,25.3,21.3,17.1,69,51,34,29.82,29.54,0,0,0,0.00
2013-3-25,38.9,36.5,33.5,34.8,30.6,24.1,93,80,60,29.55,29.32,0,0,0,0.00
2013-3-26,36.4,35.7,35.1,33.4,32.8,32.1,90,89,89,29.49,29.46,0,0,0,0.00
2013-3-27,48.4,42.4,39.2,32.1,30.5,29.4,71,63,49,29.85,29.76,0,0,0,0.00
2013-3-28,49.9,42.2,31.3,32.0,29.2,25.6,81,61,45,29.96,29.82,0,0,0,0.00
2013-3-29,43.9,37.2,32.8,30.9,27.5,25.8,78,68,57,30.00,29.96,0,0,0,0.00
2013-4-1,62.3,49.4,36.0,44.6,28.4,13.1,63,45,33,29.79,29.50,0,0,0,0.00
2013-4-2,43.9,36.5,28.8,19.1,14.2,11.7,53,41,29,29.95,29.79,0,0,0,0.00
2013-4-3,46.3,37.1,27.7,19.3,14.3,9.5,56,40,28,30.16,29.95,0,0,0,0.00
2013-4-4,55.6,40.0,26.3,28.1,20.4,11.7,64,46,30,30.25,29.93,0,0,0,0.00
2013-4-5,62.5,48.1,39.1,32.5,25.8,18.5,71,45,22,29.93,29.59,0,0,0,0.00
2013-4-6,56.2,44.7,37.1,27.7,20.2,14.0,66,39,24,30.14,29.86,0,0,0,0.00
2013-4-7,64.3,49.6,35.3,44.3,35.4,26.3,80,60,38,30.15,29.83,0,0,0,0.00
2013-4-8,77.8,60.9,45.4,50.3,45.6,40.1,85,60,36,29.93,29.82,0,0,0,0.00
2013-4-9,83.2,70.1,57.8,54.4,47.8,38.8,77,49,22,29.85,29.75,0,0,0,0.00
2013-4-10,86.9,68.9,58.3,60.3,54.2,49.2,93,62,37,29.81,29.64,0,0,0,0.00
2013-4-11,63.0,57.4,47.2,58.7,52.3,41.7,94,83,66,29.86,29.62,0,0,0,0.00
2013-4-12,48.1,43.7,41.9,42.4,41.2,40.1,95,91,77,29.83,29.55,0,0,0,0.00
2013-4-13,61.2,49.3,38.3,45.2,38.4,34.2,95,69,41,29.84,29.60,0,0,0,0.00
2013-4-14,63.4,50.9,41.0,40.2,33.7,28.5,83,54,33,30.04,29.81,0,0,0,0.00
2013-4-15,65.2,52.2,42.1,43.4,35.7,30.3,67,54,41,30.21,30.05,0,0,0,0.00
2013-4-16,74.7,59.9,45.7,58.3,49.5,36.7,87,70,52,30.21,29.96,0,0,0,0.00
2013-4-17,78.5,61.8,52.0,55.8,44.1,32.9,88,56,28,30.14,29.96,0,0,0,0.00
2013-4-18,61.4,54.0,46.3,51.3,45.8,38.4,90,74,62,30.17,29.93,0,0,0,0.00
2013-4-19,79.6,66.6,54.4,66.1,60.3,50.0,93,81,61,29.93,29.47,0,0,0,0.00
2013-4-20,59.2,51.1,44.6,49.2,35.3,25.5,91,58,36,30.16,29.57,0,0,0,0.00
2013-4-21,61.6,44.2,33.5,29.9,24.4,19.2,63,47,28,30.46,30.16,0,0,0,0.00
2013-4-22,54.4,44.3,32.4,37.5,32.2,25.2,85,63,41,30.48,30.31,0,0,0,0.00
2013-4-23,50.4,45.2,40.0,43.3,37.4,32.3,85,74,63,30.31,29.97,0,0,0,0.00
2013-4-24,74.5,55.4,36.0,56.3,46.6,33.0,93,74,52,29.98,29.65,0,0,0,0.00
2013-4-25,72.7,54.2,44.5,55.3,33.4,26.7,80,47,23,30.12,29.71,0,0,0,0.00
2013-4-26,75.1,53.3,40.7,37.8,31.6,26.3,66,45,24,30.26,30.11,0,0,0,0.00
2013-4-27,79.6,55.8,39.6,42.0,34.3,27.1,71,46,25,30.29,30.12,0,0,0,0.00
2013-4-28,75.1,57.2,39.2,46.8,38.2,31.0,80,51,31,30.17,30.03,0,0,0,0.00
2013-4-29,54.4,53.3,51.8,51.5,48.1,38.9,93,83,56,30.08,30.00,0,0,0,0.00
2013-4-30,69.7,56.8,45.0,52.4,44.3,26.6,94,67,23,30.18,30.04,0,0,0,0.00
2013-5-1,74.0,54.1,37.6,47.5,37.3,30.8,79,56,30,30.33,30.18,0,0,0,0.00
2013-5-2,84.2,57.5,39.1,50.0,42.1,36.0,90,61,28,30.32,30.17,0,0,0,0.00
2013-5-3,73.3,56.4,44.3,45.3,40.1,35.7,83,57,32,30.29,30.19,0,0,0,0.00
2013-5-4,77.2,54.6,38.9,48.7,41.6,35.3,90,65,35,30.23,30.06,0,0,0,0.00
2013-5-5,70.6,52.6,42.1,46.7,41.3,36.4,88,68,41,30.14,30.06,0,0,0,0.00
2013-5-6,76.1,56.7,42.1,57.6,47.9,37.8,90,74,52,30.11,29.99,0,0,0,0.00
2013-5-7,73.3,60.8,48.6,61.2,53.9,45.2,92,79,64,30.02,29.92,0,0,0,0.00
2013-5-8,75.4,61.1,54.4,67.1,58.4,52.0,96,91,74,29.93,29.79,0,0,0,0.00
2013-5-9,79.4,62.4,54.0,63.1,56.0,52.0,95,81,55,29.84,29.76,0,0,0,0.00
2013-5-10,86.4,68.9,52.7,64.7,57.7,50.2,94,70,40,29.87,29.75,0,0,0,0.00
2013-5-11,77.8,65.4,59.4,68.2,61.7,57.2,94,88,70,29.78,29.57,0,0,0,0.00
2013-5-12,66.2,59.2,47.0,58.1,43.2,27.5,94,60,27,29.82,29.54,0,0,0,0.00
2013-5-13,61.0,48.6,39.2,37.1,31.0,24.9,78,52,29,29.98,29.82,0,0,0,0.00
2013-5-14,71.5,49.7,33.5,42.0,30.1,23.4,86,52,21,30.00,29.88,0,0,0,0.00
2013-5-15,82.4,63.1,48.1,60.3,48.6,31.3,80,60,46,29.92,29.54,0,0,0,0.00
2013-5-16,89.5,69.3,56.9,65.8,57.3,47.5,89,68,42,29.71,29.57,0,0,0,0.00
2013-5-17,88.2,64.9,53.1,48.5,43.1,38.5,67,46,25,30.06,29.71,0,0,0,0.00
2013-5-18,71.5,59.4,51.3,55.7,50.6,42.0,86,73,57,30.15,30.05,0,0,0,0.00
2013-5-19,62.3,58.2,55.6,58.9,55.4,52.4,95,91,85,30.14,30.02,0,0,0,0.00
2013-5-20,87.7,69.2,56.9,71.0,62.9,55.4,96,82,55,30.04,29.82,0,0,0,0.00
2013-5-21,92.0,75.3,61.6,73.5,67.1,59.2,95,78,50,29.84,29.71,0,0,0,0.00
2013-5-22,94.0,76.1,65.9,75.2,68.4,63.2,93,79,46,29.78,29.67,0,0,0,0.00
2013-5-23,84.2,73.3,67.7,72.6,67.8,63.5,92,84,59,29.75,29.62,0,0,0,0.00
2013-5-24,66.6,54.4,43.4,64.3,51.0,40.5,94,88,73,29.86,29.56,0,0,0,0.00
2013-5-25,60.5,51.6,43.0,43.8,39.1,33.1,93,66,41,29.89,29.80,0,0,0,0.00
2013-5-26,72.4,57.3,45.2,42.5,37.1,32.1,77,49,26,30.06,29.86,0,0,0,0.00
2013-5-27,77.6,57.6,40.0,50.6,39.9,32.1,83,54,31,30.11,29.99,0,0,0,0.00
2013-5-28,62.8,57.5,49.5,56.3,51.8,42.6,94,82,64,30.08,29.97,0,0,0,0.00
2013-5-29,97.4,73.0,57.4,73.2,63.5,55.7,95,75,39,29.98,29.87,0,0,0,0.00
2013-5-30,101.5,81.8,67.0,71.3,66.0,62.4,90,62,33,30.00,29.93,0,0,0,0.00
2013-5-31,101.7,82.5,68.0,73.3,66.3,60.8,86,61,33,30.00,29.86,0,0,0,0.00
2013-6-1,102.2,82.1,67.3,72.4,67.5,62.5,90,64,32,29.90,29.76,0,0,0,0.00
2013-6-2,90.7,80.9,69.7,72.5,68.7,64.9,87,68,50,29.78,29.65,0,0,0,0.00
2013-6-3,85.3,73.8,66.1,68.1,65.2,53.7,94,76,52,29.76,29.66,0,0,0,0.00
2013-6-4,86.8,66.3,54.9,53.7,46.0,41.3,69,50,24,29.99,29.75,0,0,0,0.00
2013-6-5,87.8,65.0,47.3,57.4,47.7,38.3,78,55,33,30.07,29.96,0,0,0,0.00
2013-6-6,76.5,63.1,51.7,60.8,55.5,48.2,93,78,47,30.00,29.84,0,0,0,0.00
2013-6-7,63.9,61.4,60.1,62.3,59.6,57.6,96,94,90,29.85,29.46,0,0,0,0.00
2013-6-8,87.5,69.8,57.2,68.7,62.0,55.5,96,78,52,29.93,29.46,0,0,0,0.00
2013-6-9,95.2,73.0,57.2,68.2,60.3,54.6,93,68,36,30.04,29.93,0,0,0,0.00
2013-6-10,70.4,66.4,63.7,68.6,63.6,59.2,94,91,80,30.01,29.64,0,0,0,0.00
2013-6-11,88.6,75.1,66.6,70.4,66.0,60.1,94,75,50,29.65,29.51,0,0,0,0.00
2013-6-12,86.8,71.6,63.0,60.9,57.1,53.5,84,62,35,29.71,29.60,0,0,0,0.00
2013-6-13,70.6,63.4,56.7,64.7,59.3,54.4,95,87,74,29.71,29.25,0,0,0,0.00
2013-6-14,77.6,61.0,54.2,63.3,54.9,49.8,95,81,51,29.77,29.39,0,0,0,0.00
2013-6-15,90.0,69.0,54.0,66.9,56.8,52.1,95,69,34,29.89,29.77,0,0,0,0.00
2013-6-16,86.8,71.5,56.3,68.0,60.2,52.7,91,70,43,29.86,29.65,0,0,0,0.00
2013-6-17,92.7,76.0,64.1,70.7,65.2,57.9,92,71,44,29.79,29.70,0,0,0,0.00
2013-6-18,85.3,71.0,63.0,72.8,65.7,60.8,93,84,65,29.77,29.67,0,0,0,0.00
2013-6-19,92.3,68.8,57.6,61.0,54.8,47.6,94,65,29,30.03,29.74,0,0,0,0.00
2013-6-20,92.5,70.7,53.1,64.5,56.8,49.5,91,64,36,30.13,30.03,0,0,0,0.00
2013-6-21,94.9,72.8,54.7,63.5,56.6,49.6,85,59,33,30.17,30.09,0,0,0,0.00
2013-6-22,95.8,74.4,55.1,68.6,60.9,49.8,85,64,39,30.13,29.98,0,0,0,0.00
2013-6-23,92.5,77.7,62.6,72.7,67.2,58.6,89,71,51,30.06,29.91,0,0,0,0.00
2013-6-24,94.7,78.8,67.7,75.0,69.2,59.2,94,75,44,29.95,29.83,0,0,0,0.00
2013-6-25,96.3,79.9,65.9,74.3,68.3,63.4,94,70,42,29.88,29.69,0,0,0,0.00
2013-6-26,96.7,81.0,70.2,72.7,67.8,62.4,81,65,46,29.74,29.64,0,0,0,0.00
2013-6-27,96.5,79.5,68.8,75.9,70.5,65.7,93,76,50,29.69,29.41,0,0,0,0.00
2013-6-28,88.6,78.0,69.8,73.4,69.8,64.9,94,77,55,29.44,29.34,0,0,0,0.00
2013-6-29,99.2,77.8,65.2,70.7,66.0,61.9,93,70,36,29.56,29.35,0,0,0,0.00
2013-6-30,94.1,77.3,66.8,77.1,70.1,62.2,91,79,54,29.76,29.56,0,0,0,0.00
2013-7-1,84.4,76.1,71.1,77.8,72.3,68.7,94,88,75,29.89,29.74,0,0,0,0.00
2013-7-2,88.4,78.8,72.4,78.0,73.0,68.8,94,83,65,30.04,29.88,0,0,0,0.00
2013-7-3,90.7,78.9,70.2,79.5,72.5,67.4,92,82,61,30.11,30.03,0,0,0,0.00
2013-7-4,97.9,82.4,72.4,79.3,73.3,68.5,94,75,48,30.12,30.02,0,0,0,0.00
2013-7-5,98.6,83.1,70.4,77.0,72.1,67.6,93,72,43,30.08,29.96,0,0,0,0.00
2013-7-6,104.4,85.7,72.5,78.2,73.1,68.9,92,68,40,30.02,29.90,0,0,0,0.00
2013-7-7,100.6,84.2,72.4,77.3,72.7,66.9,89,70,43,29.94,29.81,0,0,0,0.00
2013-7-8,91.1,79.0,68.6,73.4,68.7,64.4,92,73,50,29.93,29.84,0,0,0,0.00
2013-7-9,92.5,78.9,68.2,75.1,70.1,65.3,92,76,52,29.94,29.85,0,0,0,0.00
2013-7-10,95.8,80.9,70.9,78.7,72.8,68.3,94,78,50,29.88,29.68,0,0,0,0.00
2013-7-11,89.3,79.7,73.6,73.3,70.2,61.8,89,74,54,29.79,29.66,0,0,0,0.00
2013-7-12,78.3,72.2,68.0,69.6,65.7,61.0,95,81,67,29.93,29.78,0,0,0,0.00
2013-7-13,85.3,74.5,68.0,77.5,71.5,66.5,96,91,73,30.15,29.92,0,0,0,0.00
2013-7-14,88.6,78.4,73.4,80.6,73.9,71.9,95,87,65,30.21,30.14,0,0,0,0.00
2013-7-16,103.5,89.0,76.0,75.4,70.3,67.3,82,56,41,30.07,30.00,0,0,0,0.00
2013-7-17,104.8,84.8,71.6,75.2,71.1,67.9,89,67,36,30.06,29.94,0,0,0,0.00
2013-7-18,104.2,86.9,74.9,78.9,73.9,69.8,85,67,42,29.94,29.83,0,0,0,0.00
2013-7-19,101.0,87.8,77.4,81.1,76.8,72.9,90,72,48,29.85,29.67,0,0,0,0.00
2013-7-20,97.9,83.8,74.5,76.8,72.5,69.0,84,70,51,29.71,29.61,0,0,0,0.00
2013-7-21,91.4,79.9,71.3,73.2,69.6,65.3,92,72,50,29.82,29.70,0,0,0,0.00
2013-7-22,90.9,77.8,70.2,76.5,70.9,65.6,92,80,62,29.81,29.66,0,0,0,0.00
2013-7-23,92.3,79.3,70.7,76.2,71.8,67.6,94,79,58,29.66,29.44,0,0,0,0.00
2013-7-24,84.2,74.6,63.5,68.8,64.2,54.0,91,71,50,29.80,29.50,0,0,0,0.00
2013-7-25,69.1,64.5,59.2,59.5,55.4,52.4,82,73,62,29.91,29.79,0,0,0,0.00
2013-7-26,93.8,71.2,61.4,62.6,59.6,56.3,90,70,35,29.91,29.86,0,0,0,0.00
2013-7-27,94.0,74.2,58.7,69.6,62.5,55.4,91,69,43,29.91,29.79,0,0,0,0.00
2013-7-28,85.9,72.2,65.0,73.6,66.5,60.0,93,83,67,29.83,29.74,0,0,0,0.00
2013-7-29,90.4,73.6,62.5,72.2,62.1,54.7,95,71,35,29.98,29.82,0,0,0,0.00
2013-7-30,91.6,70.2,56.7,64.7,57.5,53.2,89,67,38,30.05,29.98,0,0,0,0.00
2013-7-31,87.5,72.3,57.2,66.0,60.8,54.0,92,70,45,30.03,29.90,0,0,0,0.00
2013-8-1,70.9,68.7,65.9,68.0,65.1,61.8,93,89,82,29.90,29.69,0,0,0,0.00
2013-8-2,88.0,74.0,63.0,70.7,64.8,61.3,95,75,49,29.79,29.67,0,0,0,0.00
2013-8-3,80.6,70.3,64.3,69.6,63.9,58.7,91,80,63,29.79,29.73,0,0,0,0.00
2013-8-4,83.7,69.4,59.8,62.8,58.2,52.1,94,70,40,29.86,29.72,0,0,0,0.00
2013-8-5,79.2,65.5,52.9,56.0,52.2,48.8,88,65,41,29.94,29.85,0,0,0,0.00
2013-8-6,84.4,69.1,55.1,63.6,58.5,52.2,91,71,42,29.98,29.90,0,0,0,0.00
2013-8-7,82.8,72.3,64.4,69.5,65.5,59.1,90,80,62,29.99,29.91,0,0,0,0.00
2013-8-8,90.0,76.5,68.0,77.0,70.9,65.9,94,84,62,29.92,29.84,0,0,0,0.00
2013-8-9,88.7,78.0,72.7,76.9,72.9,69.8,94,85,66,29.87,29.68,0,0,0,0.00
2013-8-10,88.6,75.4,66.2,70.6,66.4,62.2,95,76,51,29.91,29.74,0,0,0,0.00
2013-8-11,89.6,71.7,57.6,66.6,60.7,54.7,91,70,47,29.99,29.88,0,0,0,0.00
2013-8-12,90.2,74.2,67.9,69.0,65.3,60.3,91,76,47,29.90,29.79,0,0,0,0.00
2013-8-13,86.9,72.2,66.1,71.5,66.8,62.8,95,84,60,29.80,29.56,0,0,0,0.00
2013-8-14,76.0,65.5,55.3,63.4,53.0,49.5,89,65,45,29.93,29.63,0,0,0,0.00
2013-8-15,82.4,63.4,50.0,55.8,51.2,47.4,92,68,38,30.01,29.93,0,0,0,0.00
2013-8-16,85.1,66.3,51.7,60.4,54.0,48.5,92,68,40,30.06,29.98,0,0,0,0.00
2013-8-17,88.6,68.1,53.6,62.6,56.7,50.5,91,70,42,30.13,30.06,0,0,0,0.00
2013-8-18,80.5,68.2,61.0,64.5,60.6,54.9,90,77,56,30.12,29.99,0,0,0,0.00
2013-8-19,79.9,69.4,60.5,67.0,62.5,58.5,94,80,54,30.00,29.91,0,0,0,0.00
2013-8-20,90.4,73.9,61.9,69.9,64.7,60.0,94,76,46,30.00,29.92,0,0,0,0.00
2013-8-21,91.8,75.4,61.7,68.7,64.0,59.4,93,71,44,30.04,29.92,0,0,0,0.00
2013-8-22,84.4,74.5,70.2,75.2,69.9,65.7,92,86,72,29.93,29.75,0,0,0,0.00
2013-8-23,84.1,72.6,63.9,68.5,62.7,57.1,93,73,46,29.96,29.75,0,0,0,0.00
2013-8-24,85.3,67.6,57.4,59.5,53.9,51.1,83,64,38,30.21,29.96,0,0,0,0.00
2013-8-25,83.5,66.5,52.4,61.6,55.1,49.8,93,70,42,30.26,30.10,0,0,0,0.00
2013-8-26,86.2,72.7,61.9,68.8,62.3,55.3,83,71,56,30.11,29.79,0,0,0,0.00
2013-8-27,88.4,76.5,68.4,69.6,67.4,65.6,92,75,54,29.79,29.71,0,0,0,0.00
2013-8-28,78.1,72.3,66.8,73.6,69.1,64.2,94,90,83,29.76,29.70,0,0,0,0.00
2013-8-29,83.5,73.5,68.0,73.1,68.9,64.2,96,86,68,29.89,29.74,0,0,0,0.00
2013-8-30,84.8,74.5,67.5,73.4,68.3,64.9,92,82,67,29.89,29.73,0,0,0,0.00
2013-8-31,89.8,77.7,68.9,76.1,71.5,66.8,94,82,64,29.74,29.65,0,0,0,0.00
2013-9-1,88.9,77.4,70.2,77.2,71.7,67.4,93,84,66,29.72,29.63,0,0,0,0.00
2013-9-2,82.1,73.9,69.8,74.7,70.5,67.4,94,89,75,29.66,29.57,0,0,0,0.00
2013-9-3,81.5,72.9,63.9,70.6,63.8,56.1,93,75,46,29.77,29.58,0,0,0,0.00
2013-9-4,79.7,67.3,56.7,60.8,57.6,53.5,90,73,51,29.88,29.76,0,0,0,0.00
2013-9-5,75.4,65.9,54.4,62.6,54.3,45.8,90,68,38,30.02,29.81,0,0,0,0.00
2013-9-6,68.8,57.1,45.9,47.6,44.7,41.9,87,66,40,30.12,30.00,0,0,0,0.00
2013-9-7,78.1,61.3,45.2,56.3,50.1,42.0,91,70,43,30.00,29.77,0,0,0,0.00
2013-9-8,80.6,68.9,57.1,66.0,56.8,45.4,87,67,44,29.95,29.70,0,0,0,0.00
2013-9-9,78.1,63.0,46.8,59.7,52.1,41.7,84,69,50,30.09,29.95,0,0,0,0.00
2013-9-10,87.5,75.8,65.2,75.2,68.1,59.2,87,78,65,30.03,29.92,0,0,0,0.00
2013-9-11,94.1,81.2,71.5,78.7,72.5,67.7,90,76,56,29.98,29.85,0,0,0,0.00
2013-9-12,88.9,76.5,67.7,75.9,69.0,63.0,87,78,61,29.86,29.56,0,0,0,0.00
2013-9-13,75.1,66.9,55.6,63.6,57.8,47.8,86,73,55,29.74,29.52,0,0,0,0.00
2013-9-14,64.1,56.0,46.1,49.2,45.6,39.6,79,69,56,30.00,29.74,0,0,0,0.00
2013-9-15,72.4,56.0,41.4,53.0,45.8,36.5,84,70,47,30.08,29.95,0,0,0,0.00
2013-9-16,71.8,60.5,52.9,57.6,51.2,46.6,82,72,54,30.11,29.90,0,0,0,0.00
2013-9-17,63.5,53.4,43.4,46.6,40.5,36.8,78,63,43,30.29,30.11,0,0,0,0.00
2013-9-18,69.1,53.2,39.4,49.2,42.0,33.9,82,68,44,30.21,30.05,0,0,0,0.00
2013-9-19,74.2,57.9,44.6,54.4,46.9,38.5,82,68,47,30.06,29.94,0,0,0,0.00
2013-9-20,78.1,62.0,48.4,61.2,51.9,42.5,81,71,52,29.95,29.83,0,0,0,0.00
2013-9-21,79.9,64.4,50.2,62.4,53.4,43.6,79,69,45,29.87,29.54,0,0,0,0.00
2013-9-22,66.6,60.8,53.1,54.2,47.6,41.6,71,62,47,29.79,29.53,0,0,0,0.00
2013-9-23,63.5,54.3,45.7,45.5,41.2,36.3,70,62,50,29.92,29.79,0,0,0,0.00
2013-9-24,71.5,54.6,40.0,50.8,41.3,30.6,70,62,43,29.92,29.75,0,0,0,0.00
2013-9-25,70.6,56.6,43.0,51.9,43.1,33.6,69,61,48,29.83,29.74,0,0,0,0.00
2013-9-26,72.7,57.8,46.4,57.1,45.2,35.6,67,63,57,29.96,29.80,0,0,0,0.00
2013-9-27,72.0,59.2,49.3,53.7,45.0,36.6,63,59,51,30.12,29.96,0,0,0,0.00
2013-9-28,73.1,60.8,52.2,55.0,45.2,36.5,62,57,49,30.18,30.09,0,0,0,0.00
2013-9-29,72.0,58.1,47.2,56.4,42.7,32.0,61,57,52,30.09,29.94,0,0,0,0.00
2013-9-30,74.3,57.4,44.6,54.7,41.0,28.5,62,54,48,29.95,29.84,0,0,0,0.00
2013-10-1,78.8,63.3,50.8,60.3,44.8,30.4,58,51,43,29.88,29.78,0,0,0,0.00
2013-10-2,81.9,67.2,54.5,62.1,46.4,29.4,58,48,36,29.89,29.79,0,0,0,0.00
2013-10-3,81.0,67.0,54.9,61.4,43.1,25.5,57,43,28,30.00,29.89,0,0,0,0.00
2013-10-4,85.3,69.7,58.0,66.2,42.6,21.2,54,39,22,29.93,29.83,0,0,0,0.00
2013-10-5,80.8,70.5,62.5,59.9,33.1,8.6,49,28,10,29.95,29.87,0,0,0,0.00
2013-10-6,73.8,67.7,64.4,27.1,10.5,6.7,18,4,1,29.94,29.86,0,0,0,0.00
2013-10-7,78.7,65.6,54.7,33.3,9.4,1.1,42,3,1,29.86,29.60,0,0,0,0.00
2013-10-8,66.1,55.2,45.2,46.6,22.2,-8.2,58,31,1,30.17,29.86,0,0,0,0.00
2013-10-9,61.9,54.0,45.9,46.0,28.1,-5.0,56,39,5,30.23,30.12,0,0,0,0.00
2013-10-10,59.9,55.6,51.5,23.4,5.2,-3.3,31,8,1,30.12,29.91,0,0,0,0.00
2013-10-11,63.7,60.9,57.1,6.1,4.0,1.0,6,1,1,29.93,29.85,0,0,0,0.00
2013-10-12,71.6,63.8,57.4,54.4,33.4,4.5,56,37,1,30.10,29.91,0,0,0,0.00
2013-10-13,66.2,59.1,50.4,48.2,17.5,-4.2,52,21,1,30.22,30.10,0,0,0,0.00
2013-10-14,65.5,53.9,44.3,48.4,13.0,-8.9,55,20,1,30.21,30.09,0,0,0,0.00
2013-10-15,69.7,54.7,43.6,51.2,16.0,-9.5,57,22,1,30.11,29.97,0,0,0,0.00
2013-10-16,70.4,59.1,47.7,47.1,14.1,-6.2,46,16,1,29.97,29.77,0,0,0,0.00
2013-10-17,74.9,65.6,59.9,52.7,13.4,3.2,46,8,1,29.77,29.55,0,0,0,0.00
2013-10-18,64.8,57.9,45.9,46.4,33.1,5.4,58,42,1,29.85,29.55,0,0,0,0.00
2013-10-19,64.8,50.9,39.4,47.4,10.1,-12.6,55,19,1,29.85,29.63,0,0,0,0.00
2013-10-20,60.8,51.7,43.6,41.2,27.2,-2.5,59,41,1,29.93,29.64,0,0,0,0.00
2013-10-21,65.3,49.7,36.4,43.4,18.3,-15.1,57,31,1,30.00,29.85,0,0,0,0.00
2013-10-22,64.6,50.1,40.3,46.0,12.4,-11.9,59,24,1,29.84,29.63,0,0,0,0.00
2013-10-23,56.7,45.0,36.7,41.1,23.7,-6.2,59,46,15,29.68,29.48,0,0,0,0.00
2013-10-24,51.8,41.8,34.6,34.5,12.7,-16.2,62,35,1,29.89,29.64,0,0,0,0.00
2013-10-25,53.1,41.5,31.3,35.1,22.9,-7.6,61,49,17,30.09,29.90,0,0,0,0.00
2013-10-26,54.0,42.3,30.4,34.9,17.6,-16.2,60,40,11,30.09,29.76,0,0,0,0.00
2013-10-27,55.8,47.3,39.6,36.2,32.0,28.0,63,56,43,29.99,29.73,0,0,0,0.00
2013-10-28,59.6,45.1,30.6,37.4,27.4,-1.3,63,51,24,30.16,29.99,0,0,0,0.00
2013-10-29,57.8,46.1,38.7,39.1,31.7,23.9,62,57,48,30.26,30.16,0,0,0,0.00
2013-10-30,61.0,48.6,37.1,45.0,22.4,-2.1,61,39,1,30.21,30.03,0,0,0,0.00
2013-10-31,67.0,59.3,52.4,8.6,2.8,-2.6,1,1,1,30.08,29.67,0,0,0,0.00
2013-11-1,68.8,62.8,54.4,49.4,11.4,-1.1,50,8,1,29.65,29.41,0,0,0,0.00
2013-11-2,67.3,54.9,47.0,48.4,19.7,-6.7,60,28,1,29.65,29.49,0,0,0,0.00
2013-11-3,49.1,44.2,33.3,33.5,24.5,5.0,58,47,18,30.30,29.65,0,0,0,0.00
2013-11-4,44.8,35.2,25.4,20.8,18.6,14.5,63,52,33,30.50,30.31,0,0,0,0.00
2013-11-5,58.7,43.8,30.6,41.8,28.5,16.3,62,55,31,30.50,30.34,0,0,0,0.00
2013-11-6,65.2,52.2,41.8,48.5,12.7,-10.8,55,22,1,30.35,29.93,0,0,0,0.00
2013-11-7,61.0,52.1,38.7,21.9,5.0,-3.5,45,11,1,29.93,29.64,0,0,0,0.00
2013-11-8,48.6,41.0,34.2,32.1,22.2,-2.5,60,49,16,30.09,29.82,0,0,0,0.00
2013-11-9,49.7,39.3,29.7,32.2,19.5,-0.9,59,45,26,30.16,29.86,0,0,0,0.00
2013-11-10,57.4,46.0,35.8,37.6,22.5,-7.6,56,41,15,29.94,29.72,0,0,0,0.00
2013-11-11,54.4,46.6,38.0,34.2,30.3,24.9,60,53,44,30.08,29.83,0,0,0,0.00
2013-11-12,49.3,36.9,25.2,35.3,21.0,-8.1,63,53,16,30.17,29.80,0,0,0,0.00
2013-11-13,38.3,29.9,24.1,18.1,15.2,12.7,65,55,37,30.25,30.15,0,0,0,0.00
2013-11-14,50.8,37.6,27.2,23.0,18.5,15.5,64,48,27,30.14,30.04,0,0,0,0.00
2013-11-15,57.1,42.6,31.0,34.2,26.3,20.1,64,53,37,30.11,30.02,0,0,0,0.00
2013-11-16,57.6,47.4,41.6,42.9,17.3,-11.0,62,34,1,30.19,30.10,0,0,0,0.00
2013-11-17,66.6,55.9,47.5,15.8,0.6,-6.3,15,3,1,30.12,29.63,0,0,0,0.00
2013-11-18,63.0,57.3,48.4,43.6,21.6,-1.8,56,26,1,29.68,29.47,0,0,0,0.00
2013-11-19,48.4,41.8,33.1,29.3,25.1,21.2,62,52,44,30.21,29.68,0,0,0,0.00
2013-11-20,43.6,34.1,27.0,21.5,15.4,8.0,64,48,25,30.46,30.21,0,0,0,0.00
2013-11-21,53.6,39.2,24.8,37.4,25.0,11.3,64,57,47,30.46,30.24,0,0,0,0.00
2013-11-22,58.7,50.9,46.1,33.8,10.5,-7.4,47,20,1,30.24,29.79,0,0,0,0.00
2013-11-23,52.7,40.8,28.6,34.0,22.5,-4.0,63,50,1,29.92,29.79,0,0,0,0.00
2013-11-24,28.6,24.2,20.5,7.4,3.3,1.1,49,40,35,30.26,29.91,0,0,0,0.00
2013-11-25,34.9,26.2,16.4,17.1,12.2,5.0,68,55,44,30.34,30.18,0,0,0,0.00
2013-11-26,43.6,34.7,30.6,26.6,8.1,-16.9,64,38,1,30.19,29.55,0,0,0,0.00
2013-11-27,59.8,43.5,31.5,22.7,-3.4,-16.6,61,10,1,29.67,29.25,0,0,0,0.00
2013-11-28,34.6,30.2,26.5,19.1,15.9,12.6,62,55,42,30.32,29.67,0,0,0,0.00
2013-11-29,38.7,29.8,22.9,22.5,16.5,6.6,63,57,46,30.59,30.32,0,0,0,0.00
2013-11-30,37.4,28.6,19.6,24.4,15.5,9.6,65,58,41,30.59,30.23,0,0,0,0.00
2013-12-1,47.2,36.8,26.6,33.1,12.3,-22.5,59,40,1,30.23,29.87,0,0,0,0.00
2013-12-2,49.0,39.9,34.9,34.4,22.1,8.0,59,49,31,29.87,29.74,0,0,0,0.00
2013-12-3,51.7,40.7,34.0,36.4,14.1,-15.2,59,37,7,29.87,29.74,0,0,0,0.00
2013-12-4,51.8,41.7,31.5,33.3,0.9,-18.8,50,18,1,29.98,29.87,0,0,0,0.00
2013-12-5,55.6,50.8,45.7,-0.1,-3.8,-7.7,1,1,1,29.96,29.80,0,0,0,0.00
2013-12-6,60.5,47.0,36.4,3.7,-6.8,-15.1,1,1,1,29.98,29.73,0,0,0,0.00
2013-12-7,38.5,33.8,27.7,22.9,0.9,-17.6,57,27,1,30.37,29.95,0,0,0,0.00
2013-12-8,31.1,27.3,22.7,18.1,-0.5,-22.0,59,34,1,30.43,30.19,0,0,0,0.00
2013-12-9,35.8,32.7,28.8,-15.5,-17.9,-21.0,1,1,1,30.19,29.85,0,0,0,0.00
2013-12-10,35.1,29.9,20.5,-16.1,-20.0,-27.5,15,2,1,30.01,29.76,0,0,0,0.00
2013-12-11,31.1,24.5,19.1,18.5,4.0,-27.5,60,43,2,30.20,30.01,0,0,0,0.00
2013-12-12,25.7,21.8,15.5,11.8,7.5,1.4,64,54,43,30.22,30.02,0,0,0,0.00
2013-12-13,34.0,25.0,14.6,17.7,12.6,4.6,64,59,51,30.19,30.00,0,0,0,0.00
2013-12-14,28.8,25.6,21.2,16.0,-6.7,-27.0,61,27,1,30.31,29.59,0,0,0,0.00
2013-12-15,36.9,33.4,28.6,20.0,0.8,-21.0,57,27,1,29.72,29.48,0,0,0,0.00
2013-12-16,30.6,24.1,15.7,18.4,10.6,5.9,65,56,46,30.08,29.71,0,0,0,0.00
2013-12-17,27.7,21.9,17.6,9.8,-12.6,-29.2,64,26,1,30.07,29.80,0,0,0,0.00
2013-12-18,36.5,25.6,15.8,23.6,-0.4,-31.1,62,38,1,30.05,29.80,0,0,0,0.00
2013-12-19,44.3,31.6,20.9,29.8,15.7,-5.4,62,52,29,30.05,29.89,0,0,0,0.00
2013-12-20,51.7,39.5,28.1,36.1,22.5,-5.3,61,51,21,29.96,29.83,0,0,0,0.00
2013-12-21,58.7,47.7,37.8,38.3,6.7,-13.9,50,18,1,29.87,29.76,0,0,0,0.00
2013-12-22,68.2,62.7,56.3,9.6,5.4,0.5,1,1,1,29.82,29.66,0,0,0,0.00
2013-12-23,59.6,53.4,39.6,22.9,2.1,-8.4,51,6,1,30.03,29.78,0,0,0,0.00
2013-12-24,39.6,33.4,23.9,23.1,16.9,-22.9,60,52,1,30.23,29.97,0,0,0,0.00
2013-12-25,28.4,23.1,16.2,14.1,10.8,5.7,63,59,52,30.39,30.23,0,0,0,0.00
2013-12-26,35.3,27.3,17.5,14.6,5.4,-8.2,59,40,26,30.27,30.03,0,0,0,0.00
2013-12-27,40.7,30.9,23.0,24.9,14.7,1.3,60,51,36,30.22,30.13,0,0,0,0.00
2013-12-28,53.8,38.8,24.8,31.1,20.1,-0.6,59,47,31,30.14,29.94,0,0,0,0.00
2013-12-29,42.8,40.3,37.8,27.6,5.3,-13.9,60,26,1,29.94,29.32,0,0,0,0.00
2013-12-30,45.0,35.2,21.6,29.4,5.3,-14.7,61,33,1,30.03,29.58,0,0,0,0.00
2013-12-31,32.0,25.0,15.7,18.7,10.9,-9.4,62,56,17,30.15,29.92,0,0,0,0.00
2014-1-1,35.5,27.4,18.9,22.1,15.0,7.9,62,59,56,30.26,30.07,0,0,0,0.00
2014-1-2,30.8,26.0,17.5,18.7,-3.2,-29.9,61,30,1,30.07,29.52,0,0,0,0.00